Time;durP1;ratioP1;P1;durP2;ratioP2;P2;SDS_P1;SDS_P2;PMS_P1;PMS_P2;Temp;Humidity;BMP_temperature;BMP_pressure;BME280_temperature;BME280_humidity;BME280_pressure;Samples;Min_cycle;Max_cycle;Signal;HPM_P1;HPM_P2
2022/09/22 00:00:27;;;;;;;1.43;0.40;;;9.10;1.00;;;;;;5038890;28;20456;-75
2022/09/22 00:02:57;;;;;;;0.80;0.50;;;9.10;1.00;;;;;;5039419;28;20531;-75
2022/09/22 00:05:24;;;;;;;0.80;0.50;;;9.10;1.00;;;;;;5039181;28;20546;-75
2022/09/22 00:07:51;;;;;;;1.00;0.50;;;9.10;1.00;;;;;;5039248;28;20827;-76
2022/09/22 00:10:20;;;;;;;1.00;0.50;;;9.10;1.00;;;;;;5036432;28;20464;-76
2022/09/22 00:12:49;;;;;;;0.83;0.50;;;9.00;1.00;;;;;;5039370;28;20801;-76
2022/09/22 00:15:18;;;;;;;0.87;0.50;;;9.00;1.00;;;;;;5037950;28;20555;-76
2022/09/22 00:17:45;;;;;;;1.33;0.60;;;9.00;1.00;;;;;;5039942;28;20503;-75
2022/09/22 00:20:12;;;;;;;1.60;0.50;;;9.00;1.00;;;;;;5037729;28;20891;-75
2022/09/22 00:22:39;;;;;;;1.00;0.50;;;9.00;1.00;;;;;;5039527;28;20455;-75
2022/09/22 00:25:07;;;;;;;0.90;0.57;;;8.90;1.00;;;;;;5036810;28;20488;-75
2022/09/22 00:27:34;;;;;;;1.17;0.60;;;8.80;1.00;;;;;;5039516;28;20542;-75
2022/09/22 00:30:01;;;;;;;2.13;0.60;;;8.80;1.00;;;;;;5036927;28;20550;-76
2022/09/22 00:32:32;;;;;;;1.20;0.60;;;8.70;1.00;;;;;;5039267;28;20471;-75
2022/09/22 00:34:59;;;;;;;1.00;0.50;;;8.80;1.00;;;;;;5036293;28;20448;-76
2022/09/22 00:37:26;;;;;;;0.87;0.50;;;8.80;1.00;;;;;;5039582;28;20487;-76
2022/09/22 00:39:53;;;;;;;1.03;0.53;;;8.90;1.00;;;;;;5037054;28;20906;-75
2022/09/22 00:42:21;;;;;;;1.90;0.60;;;9.00;1.00;;;;;;5039461;28;20448;-76
2022/09/22 00:44:47;;;;;;;1.40;0.60;;;9.10;1.00;;;;;;5036527;28;20475;-75
2022/09/22 00:47:32;;;;;;;0.80;0.50;;;9.00;1.00;;;;;;5038669;28;20775;-76
2022/09/22 00:50:07;;;;;;;1.00;0.60;;;9.00;1.00;;;;;;5032795;28;20486;-76
2022/09/22 00:52:38;;;;;;;0.90;0.50;;;9.00;1.00;;;;;;5038724;28;20967;-75
2022/09/22 00:55:10;;;;;;;0.80;0.50;;;8.90;1.00;;;;;;5035764;28;20456;-75
2022/09/22 00:57:39;;;;;;;0.87;0.50;;;8.90;1.00;;;;;;5038217;28;20542;-75
2022/09/22 01:00:09;;;;;;;0.70;0.50;;;8.80;1.00;;;;;;5036511;28;20460;-75
2022/09/22 01:02:36;;;;;;;0.83;0.50;;;8.80;1.00;;;;;;5038463;28;20448;-75
2022/09/22 01:05:05;;;;;;;0.60;0.50;;;8.80;1.00;;;;;;5036305;28;20839;-75
2022/09/22 01:07:32;;;;;;;0.90;0.53;;;8.80;1.00;;;;;;5039112;28;20448;-75
2022/09/22 01:10:00;;;;;;;0.80;0.50;;;8.70;1.00;;;;;;5036330;28;20854;-75
2022/09/22 01:12:29;;;;;;;0.77;0.50;;;8.70;1.00;;;;;;5038489;28;20533;-75
2022/09/22 01:15:24;;;;;;;0.90;0.50;;;8.70;1.00;;;;;;5036734;28;20960;-75
2022/09/22 01:18:06;;;;;;;0.70;0.50;;;8.60;1.00;;;;;;5038611;28;20452;-75
2022/09/22 01:21:13;;;;;;;3.60;0.70;;;8.60;1.00;;;;;;5036263;28;20945;-75
2022/09/22 01:24:19;;;;;;;1.10;0.50;;;8.50;1.00;;;;;;5038392;28;20443;-75
2022/09/22 01:27:28;;;;;;;0.77;0.50;;;8.60;1.00;;;;;;5035734;28;20920;-75
2022/09/22 01:30:18;;;;;;;0.83;0.50;;;8.60;1.00;;;;;;5037933;28;20510;-75
2022/09/22 01:32:55;;;;;;;1.90;0.50;;;8.70;1.00;;;;;;5038943;28;20433;-75
2022/09/22 01:35:30;;;;;;;1.03;0.50;;;8.60;1.00;;;;;;5035676;28;20462;-75
2022/09/22 01:38:05;;;;;;;0.87;0.50;;;8.60;1.00;;;;;;5038666;28;20448;-75
2022/09/22 01:40:41;;;;;;;3.00;0.60;;;8.50;1.00;;;;;;5036089;28;20499;-75
2022/09/22 01:43:21;;;;;;;1.13;0.50;;;8.50;1.00;;;;;;5038332;28;20475;-75
2022/09/22 01:45:50;;;;;;;1.20;0.60;;;8.40;1.00;;;;;;5035770;28;20941;-75
2022/09/22 01:48:20;;;;;;;0.73;0.40;;;8.40;1.00;;;;;;5037945;28;20456;-75
2022/09/22 01:50:53;;;;;;;0.90;0.50;;;8.40;1.00;;;;;;5035157;28;20462;-76
2022/09/22 01:53:26;;;;;;;0.90;0.50;;;8.30;1.00;;;;;;5038169;28;20475;-75
2022/09/22 01:55:58;;;;;;;1.67;0.60;;;8.40;1.00;;;;;;5036750;28;20526;-75
2022/09/22 01:58:29;;;;;;;0.80;0.47;;;8.40;1.00;;;;;;5038355;28;20447;-75
2022/09/22 02:01:06;;;;;;;0.90;0.40;;;8.40;1.00;;;;;;5040437;28;20464;-75
2022/09/22 02:03:40;;;;;;;0.90;0.60;;;8.50;1.00;;;;;;5042439;28;20440;-76
2022/09/22 02:06:12;;;;;;;0.70;0.50;;;8.70;1.00;;;;;;5039675;28;20756;-75
2022/09/22 02:08:43;;;;;;;0.73;0.50;;;8.60;1.00;;;;;;5041666;28;20724;-75
2022/09/22 02:11:15;;;;;;;0.93;0.50;;;8.60;1.00;;;;;;5039484;28;20551;-75
2022/09/22 02:13:42;;;;;;;0.80;0.50;;;8.50;1.00;;;;;;5041687;28;20440;-75
2022/09/22 02:16:12;;;;;;;2.23;0.50;;;8.40;1.00;;;;;;5039951;28;20958;-75
2022/09/22 02:18:43;;;;;;;3.00;0.70;;;8.40;1.00;;;;;;5041532;28;20460;-72
2022/09/22 02:21:12;;;;;;;1.20;0.60;;;8.30;1.00;;;;;;5039032;28;20460;-71
2022/09/22 02:23:40;;;;;;;0.90;0.50;;;8.30;1.00;;;;;;5041048;28;20889;-72
2022/09/22 02:26:08;;;;;;;0.70;0.50;;;8.20;1.00;;;;;;5037954;28;20527;-71
2022/09/22 02:28:39;;;;;;;0.80;0.53;;;8.20;1.00;;;;;;5040520;28;20799;-72
2022/09/22 02:31:08;;;;;;;0.87;0.60;;;8.20;1.00;;;;;;5037416;28;20490;-71
2022/09/22 02:33:39;;;;;;;0.83;0.57;;;8.10;1.00;;;;;;5040894;28;20926;-71
2022/09/22 02:36:19;;;;;;;1.60;0.57;;;8.10;1.00;;;;;;5038690;28;20455;-72
2022/09/22 02:38:53;;;;;;;1.70;0.60;;;8.10;1.00;;;;;;5040158;28;20448;-72
2022/09/22 02:41:28;;;;;;;0.90;0.60;;;8.00;1.00;;;;;;5038640;28;20459;-72
2022/09/22 02:44:02;;;;;;;0.97;0.57;;;8.10;1.00;;;;;;5040776;28;20966;-72
2022/09/22 02:46:33;;;;;;;0.93;0.50;;;8.10;1.00;;;;;;5037431;28;20488;-72
2022/09/22 02:49:04;;;;;;;1.10;0.60;;;8.10;1.00;;;;;;5040162;28;20454;-71
2022/09/22 02:51:33;;;;;;;1.47;0.40;;;8.00;1.00;;;;;;5038673;28;20775;-72
2022/09/22 02:54:00;;;;;;;0.87;0.60;;;8.10;1.00;;;;;;5040573;28;20754;-72
2022/09/22 02:56:27;;;;;;;0.80;0.50;;;8.10;1.00;;;;;;5038773;28;20458;-72
2022/09/22 02:58:54;;;;;;;0.90;0.60;;;8.00;1.00;;;;;;5041036;28;20451;-72
2022/09/22 03:01:21;;;;;;;0.80;0.50;;;8.00;1.00;;;;;;5037176;28;20562;-72
2022/09/22 03:03:48;;;;;;;0.90;0.50;;;7.90;1.00;;;;;;5039600;28;20449;-71
2022/09/22 03:06:16;;;;;;;1.20;0.60;;;7.90;1.00;;;;;;5038637;28;20783;-71
2022/09/22 03:08:43;;;;;;;0.87;0.50;;;7.90;1.00;;;;;;5040180;28;20932;-72
2022/09/22 03:11:09;;;;;;;0.67;0.40;;;7.90;1.00;;;;;;5036259;28;20554;-71
2022/09/22 03:13:36;;;;;;;1.20;0.60;;;7.80;1.00;;;;;;5039833;28;20452;-72
2022/09/22 03:16:03;;;;;;;0.53;0.40;;;7.80;1.00;;;;;;5037553;28;20449;-72
2022/09/22 03:18:30;;;;;;;1.07;0.50;;;7.80;1.00;;;;;;5040282;28;20453;-72
2022/09/22 03:20:57;;;;;;;0.73;0.50;;;7.80;1.00;;;;;;5036842;28;20570;-72
2022/09/22 03:23:25;;;;;;;0.93;0.57;;;7.80;1.00;;;;;;5039385;28;20551;-72
2022/09/22 03:25:52;;;;;;;0.80;0.50;;;7.80;1.00;;;;;;5037195;28;20597;-71
2022/09/22 03:28:19;;;;;;;0.80;0.50;;;7.80;1.00;;;;;;5039506;28;20543;-72
2022/09/22 03:30:45;;;;;;;1.40;0.60;;;7.80;1.00;;;;;;5037513;28;20558;-72
2022/09/22 03:33:13;;;;;;;1.13;0.60;;;7.80;1.00;;;;;;5039586;28;20551;-73
2022/09/22 03:35:40;;;;;;;0.83;0.57;;;7.70;1.00;;;;;;5036348;28;20452;-72
2022/09/22 03:38:07;;;;;;;1.00;0.53;;;7.70;1.00;;;;;;5039278;28;20459;-72
2022/09/22 03:40:35;;;;;;;0.90;0.60;;;7.60;1.00;;;;;;5039727;28;20974;-71
2022/09/22 03:43:02;;;;;;;1.10;0.50;;;7.60;1.00;;;;;;5037163;28;20541;-72
2022/09/22 03:45:29;;;;;;;1.00;0.57;;;7.60;1.00;;;;;;5038361;28;20440;-71
2022/09/22 03:47:58;;;;;;;2.00;0.60;;;7.60;1.00;;;;;;5037210;28;20915;-71
2022/09/22 03:50:25;;;;;;;1.23;0.53;;;7.60;1.00;;;;;;5039936;28;20531;-72
2022/09/22 03:52:52;;;;;;;0.90;0.50;;;7.60;1.00;;;;;;5036208;28;20487;-72
2022/09/22 03:55:19;;;;;;;1.10;0.60;;;7.70;1.00;;;;;;5039033;28;20452;-72
2022/09/22 03:57:47;;;;;;;0.90;0.50;;;7.70;1.00;;;;;;5038709;28;20475;-73
2022/09/22 04:00:15;;;;;;;2.07;0.50;;;7.70;1.00;;;;;;5038872;28;20812;-73
2022/09/22 04:02:43;;;;;;;0.80;0.60;;;7.70;1.00;;;;;;5034804;28;20892;-72
2022/09/22 04:05:10;;;;;;;1.07;0.50;;;7.70;1.00;;;;;;5039508;28;20478;-72
2022/09/22 04:07:37;;;;;;;0.93;0.60;;;7.70;1.00;;;;;;5035983;28;20495;-72
2022/09/22 04:10:05;;;;;;;1.03;0.40;;;7.60;1.00;;;;;;5038655;28;20459;-73
2022/09/22 04:12:32;;;;;;;0.97;0.50;;;7.60;1.00;;;;;;5034573;28;20487;-72
2022/09/22 04:15:00;;;;;;;1.30;0.50;;;7.60;1.00;;;;;;5036887;28;20452;-72
2022/09/22 04:17:27;;;;;;;0.67;0.47;;;7.60;1.00;;;;;;5035392;28;20550;-73
2022/09/22 04:19:54;;;;;;;1.10;0.70;;;7.60;1.00;;;;;;5038196;28;20923;-72
2022/09/22 04:22:21;;;;;;;1.17;0.47;;;7.60;1.00;;;;;;5035649;28;20495;-72
2022/09/22 04:24:47;;;;;;;0.70;0.53;;;7.60;1.00;;;;;;5037340;28;20915;-72
2022/09/22 04:27:14;;;;;;;1.93;0.73;;;7.60;1.00;;;;;;5035110;28;20519;-73
2022/09/22 04:29:41;;;;;;;1.13;0.60;;;7.60;1.00;;;;;;5038312;28;20444;-73
2022/09/22 04:32:10;;;;;;;1.30;0.50;;;7.60;1.00;;;;;;5035847;28;20915;-73
2022/09/22 04:34:37;;;;;;;0.73;0.50;;;7.60;1.00;;;;;;5038607;28;20452;-73
2022/09/22 04:37:04;;;;;;;1.20;0.53;;;7.50;1.00;;;;;;5035919;28;20828;-72
2022/09/22 04:39:30;;;;;;;1.13;0.50;;;7.50;1.00;;;;;;5038636;28;20539;-73
2022/09/22 04:41:57;;;;;;;0.90;0.60;;;7.50;1.00;;;;;;5033039;28;20711;-72
2022/09/22 04:44:24;;;;;;;1.20;0.60;;;7.40;1.00;;;;;;5038928;28;20488;-73
2022/09/22 04:46:51;;;;;;;0.70;0.60;;;7.50;1.00;;;;;;5037028;28;20468;-72
2022/09/22 04:49:19;;;;;;;0.70;0.50;;;7.50;1.00;;;;;;5038280;28;20456;-72
2022/09/22 04:51:46;;;;;;;0.73;0.50;;;7.50;1.00;;;;;;5032951;28;20525;-72
2022/09/22 04:54:13;;;;;;;1.13;0.47;;;7.50;1.00;;;;;;5035689;28;20478;-72
2022/09/22 04:56:41;;;;;;;1.00;0.60;;;7.50;1.00;;;;;;5033545;28;20444;-70
2022/09/22 04:59:08;;;;;;;2.97;0.50;;;7.50;1.00;;;;;;5035767;28;20459;-71
2022/09/22 05:01:36;;;;;;;1.13;0.70;;;7.40;1.00;;;;;;5031995;28;20898;-71
2022/09/22 05:04:03;;;;;;;2.50;0.67;;;7.40;1.00;;;;;;5035818;28;20756;-71
2022/09/22 05:06:31;;;;;;;1.00;0.60;;;7.40;1.00;;;;;;5035163;28;20494;-72
2022/09/22 05:08:58;;;;;;;0.90;0.60;;;7.40;1.00;;;;;;5037114;28;20462;-72
2022/09/22 05:11:24;;;;;;;0.80;0.60;;;7.40;1.00;;;;;;5045656;28;21051;-72
2022/09/22 05:13:51;;;;;;;0.83;0.60;;;7.40;1.00;;;;;;5053430;28;20558;-72
2022/09/22 05:16:18;;;;;;;0.90;0.60;;;7.40;1.00;;;;;;5058256;28;20501;-73
2022/09/22 05:18:47;;;;;;;0.97;0.60;;;7.40;1.00;;;;;;5054430;28;20455;-71
2022/09/22 05:21:16;;;;;;;1.10;0.50;;;7.40;1.00;;;;;;5057705;28;20467;-72
2022/09/22 05:23:45;;;;;;;0.90;0.60;;;7.50;1.00;;;;;;5053794;28;20457;-72
2022/09/22 05:26:12;;;;;;;0.80;0.60;;;7.50;1.00;;;;;;5056577;28;20481;-72
2022/09/22 05:28:39;;;;;;;1.60;0.60;;;7.50;1.00;;;;;;5049926;28;20447;-72
2022/09/22 05:31:06;;;;;;;1.37;0.70;;;7.50;1.00;;;;;;5055224;28;20529;-71
2022/09/22 05:33:33;;;;;;;0.90;0.50;;;7.40;1.00;;;;;;5052697;28;20506;-72
2022/09/22 05:36:00;;;;;;;0.80;0.60;;;7.40;1.00;;;;;;5056270;28;20454;-71
2022/09/22 05:38:27;;;;;;;7.57;0.80;;;7.40;1.00;;;;;;5053826;28;20727;-71
2022/09/22 05:40:55;;;;;;;4.40;0.70;;;7.30;1.00;;;;;;5054551;28;20777;-71
2022/09/22 05:43:22;;;;;;;2.17;0.90;;;7.40;1.00;;;;;;5055410;28;20451;-71
2022/09/22 05:45:49;;;;;;;4.70;0.90;;;7.50;1.00;;;;;;5052194;28;20463;-72
2022/09/22 05:48:18;;;;;;;3.30;0.93;;;7.60;1.00;;;;;;5055948;28;20487;-72
2022/09/22 05:50:46;;;;;;;1.77;1.10;;;7.60;1.00;;;;;;5046773;28;20475;-72
2022/09/22 05:53:14;;;;;;;1.23;0.80;;;7.60;1.00;;;;;;5036695;28;20789;-71
2022/09/22 05:55:41;;;;;;;1.50;0.70;;;7.60;1.00;;;;;;5036626;28;20456;-72
2022/09/22 05:58:11;;;;;;;1.47;0.73;;;7.70;1.00;;;;;;5036427;28;21234;-73
2022/09/22 06:00:40;;;;;;;1.33;0.80;;;7.70;1.00;;;;;;5044021;28;20499;-71
2022/09/22 06:03:07;;;;;;;0.97;0.73;;;7.70;1.00;;;;;;5056088;28;20508;-72
2022/09/22 06:05:34;;;;;;;31.77;17.17;;;7.70;1.00;;;;;;5052275;28;20459;-71
2022/09/22 06:08:08;;;;;;;16.87;11.03;;;8.00;1.00;;;;;;5056009;28;20778;-71
2022/09/22 06:10:38;;;;;;;3.30;1.83;;;8.30;1.00;;;;;;5052173;28;20451;-71
2022/09/22 06:13:06;;;;;;;1.60;0.80;;;8.60;1.00;;;;;;5055260;28;20505;-72
2022/09/22 06:15:37;;;;;;;1.93;0.90;;;8.80;1.00;;;;;;5051638;28;20451;-71
2022/09/22 06:18:06;;;;;;;2.90;0.80;;;9.00;1.00;;;;;;5055718;28;20451;-72
2022/09/22 06:20:33;;;;;;;1.50;0.70;;;9.20;1.00;;;;;;5051642;28;20637;-73
2022/09/22 06:23:00;;;;;;;6.90;0.77;;;9.30;99.90;;;;;;5055491;28;20435;-72
2022/09/22 06:25:30;;;;;;;2.53;0.90;;;9.30;99.90;;;;;;5052816;28;20465;-70
2022/09/22 06:28:01;;;;;;;1.30;0.70;;;9.30;1.00;;;;;;5054089;28;20480;-71
2022/09/22 06:30:30;;;;;;;2.13;0.80;;;9.40;99.90;;;;;;5052075;28;20463;-71
2022/09/22 06:33:09;;;;;;;0.97;0.70;;;9.40;1.00;;;;;;5055765;28;20494;-71
2022/09/22 06:35:36;;;;;;;1.37;0.70;;;9.50;99.90;;;;;;5062195;28;20451;-71
2022/09/22 06:38:14;;;;;;;1.77;0.80;;;9.60;1.00;;;;;;5060449;28;20439;-70
2022/09/22 06:40:41;;;;;;;1.17;0.70;;;9.50;99.90;;;;;;5052483;28;20458;-72
2022/09/22 06:43:21;;;;;;;1.80;0.80;;;9.40;99.90;;;;;;5054725;28;20443;-73
2022/09/22 06:45:49;;;;;;;0.93;0.80;;;9.40;99.90;;;;;;5056003;28;20454;-70
2022/09/22 06:48:18;;;;;;;1.20;0.70;;;9.20;1.00;;;;;;5059652;28;20489;-72
2022/09/22 06:50:48;;;;;;;1.27;0.70;;;9.10;99.90;;;;;;5055911;28;20890;-71
2022/09/22 06:53:16;;;;;;;1.33;0.70;;;9.10;99.90;;;;;;5058974;28;20454;-71
2022/09/22 06:55:43;;;;;;;1.00;0.80;;;9.10;99.90;;;;;;5059780;28;20475;-70
2022/09/22 06:58:10;;;;;;;1.40;0.80;;;9.10;99.90;;;;;;5058991;28;20753;-70
2022/09/22 07:00:37;;;;;;;1.30;0.90;;;9.00;99.90;;;;;;5056037;28;20455;-70
2022/09/22 07:03:07;;;;;;;1.17;0.80;;;8.90;1.00;;;;;;5058073;28;20494;-69
2022/09/22 07:05:36;;;;;;;1.67;0.73;;;8.80;1.00;;;;;;5054347;28;20463;-69
2022/09/22 07:08:04;;;;;;;2.63;0.80;;;8.90;1.00;;;;;;5056499;28;21231;-70
2022/09/22 07:10:36;;;;;;;0.90;0.70;;;9.10;1.00;;;;;;5053193;28;20490;-71
2022/09/22 07:13:04;;;;;;;1.30;0.80;;;9.30;1.00;;;;;;5058621;28;20458;-71
2022/09/22 07:15:33;;;;;;;1.17;0.80;;;9.50;99.90;;;;;;5053853;28;20543;-71
2022/09/22 07:18:00;;;;;;;3.87;2.20;;;9.60;99.90;;;;;;5055870;28;20452;-72
2022/09/22 07:20:27;;;;;;;9.53;3.57;;;9.70;99.90;;;;;;5055851;28;20455;-71
2022/09/22 07:22:59;;;;;;;2.40;1.70;;;9.80;99.90;;;;;;5055533;28;20447;-71
2022/09/22 07:25:32;;;;;;;1.70;0.90;;;10.00;1.00;;;;;;5057471;28;20554;-70
2022/09/22 07:28:03;;;;;;;1.60;0.80;;;10.20;99.90;;;;;;5056911;28;20521;-71
2022/09/22 07:30:31;;;;;;;1.23;0.83;;;10.10;1.00;;;;;;5047992;28;21008;-72
2022/09/22 07:33:00;;;;;;;1.10;0.70;;;10.00;1.00;;;;;;5057158;28;20444;-71
2022/09/22 07:35:27;;;;;;;1.10;0.70;;;9.90;99.90;;;;;;5053154;28;20459;-71
2022/09/22 07:37:55;;;;;;;1.83;1.00;;;10.10;1.00;;;;;;5056971;28;20458;-72
2022/09/22 07:40:24;;;;;;;1.63;0.70;;;10.20;99.90;;;;;;5053868;28;20455;-71
2022/09/22 07:42:51;;;;;;;1.10;0.70;;;10.40;99.90;;;;;;5056727;28;20481;-70
2022/09/22 07:45:18;;;;;;;1.07;0.70;;;10.60;1.00;;;;;;5051840;28;20493;-71
2022/09/22 07:50:30;;;;;;;2.27;0.90;;;10.80;99.90;;;;;;5053461;28;20431;-71
2022/09/22 07:52:57;;;;;;;2.43;0.90;;;10.90;99.90;;;;;;5055914;28;20467;-70
2022/09/22 07:55:25;;;;;;;2.43;0.90;;;10.90;1.00;;;;;;5053029;28;20926;-70
2022/09/22 07:57:56;;;;;;;1.57;1.00;;;10.90;1.00;;;;;;5056135;28;20509;-70
2022/09/22 08:00:25;;;;;;;1.87;0.70;;;10.90;99.90;;;;;;5053083;28;20459;-71
2022/09/22 08:02:54;;;;;;;2.57;1.00;;;11.00;99.90;;;;;;5056507;28;20479;-71
2022/09/22 08:05:22;;;;;;;1.40;1.00;;;11.20;1.00;;;;;;5053347;28;20466;-71
2022/09/22 08:07:49;;;;;;;3.30;1.30;;;11.30;1.00;;;;;;5055450;28;20483;-70
2022/09/22 08:10:18;;;;;;;2.23;1.20;;;11.40;1.00;;;;;;5054128;28;20462;-71
2022/09/22 08:12:51;;;;;;;5.00;1.10;;;11.50;1.00;;;;;;5056070;28;20501;-72
2022/09/22 08:15:22;;;;;;;3.20;1.43;;;11.50;99.90;;;;;;5052506;28;20546;-72
2022/09/22 08:17:49;;;;;;;2.30;1.07;;;11.50;1.00;;;;;;5055449;28;20443;-72
2022/09/22 08:20:17;;;;;;;2.40;1.20;;;11.60;1.00;;;;;;5053157;28;20460;-72
2022/09/22 08:22:44;;;;;;;2.10;1.10;;;11.60;99.90;;;;;;5056441;28;20459;-72
2022/09/22 08:25:12;;;;;;;1.50;1.00;;;11.60;99.90;;;;;;5051018;28;20451;-71
2022/09/22 08:27:40;;;;;;;2.20;1.00;;;11.70;1.00;;;;;;5055719;28;20490;-72
2022/09/22 08:30:10;;;;;;;1.97;1.37;;;11.90;99.90;;;;;;5051995;28;20482;-72
2022/09/22 08:32:37;;;;;;;1.30;0.90;;;11.90;1.00;;;;;;5054266;28;20435;-71
2022/09/22 08:35:07;;;;;;;2.07;1.20;;;12.00;1.00;;;;;;5052989;28;20956;-71
2022/09/22 08:37:35;;;;;;;1.30;0.93;;;12.20;1.00;;;;;;5055940;28;20799;-71
2022/09/22 08:40:02;;;;;;;5.33;1.00;;;12.30;1.00;;;;;;5054113;28;20451;-71
2022/09/22 08:42:33;;;;;;;1.50;0.80;;;12.40;99.90;;;;;;5054980;28;20547;-72
2022/09/22 08:45:05;;;;;;;1.37;0.90;;;12.50;1.00;;;;;;5055182;28;20887;-70
2022/09/22 08:53:23;;;;;;;1.20;0.90;;;12.50;1.00;;;;;;5020412;28;20514;-70
2022/09/22 08:56:05;;;;;;;4.73;0.90;;;12.60;1.00;;;;;;5046453;28;20480;-71
2022/09/22 08:58:44;;;;;;;1.60;0.90;;;12.70;1.00;;;;;;5032443;28;20448;-70
2022/09/22 09:01:23;;;;;;;1.70;1.00;;;12.80;1.00;;;;;;5035038;28;20436;-71
2022/09/22 09:04:02;;;;;;;1.80;0.90;;;12.80;1.00;;;;;;5033179;28;20521;-70
2022/09/22 09:06:38;;;;;;;3.77;1.10;;;13.00;1.00;;;;;;5034513;28;20475;-70
2022/09/22 09:09:16;;;;;;;0.80;0.63;;;13.10;99.90;;;;;;5032172;28;20855;-72
2022/09/22 09:11:54;;;;;;;1.20;0.57;;;13.20;99.90;;;;;;5035628;28;20443;-73
2022/09/22 09:14:56;;;;;;;1.57;0.50;;;13.30;99.90;;;;;;5035236;28;20467;-74
2022/09/22 09:17:27;;;;;;;0.50;0.30;;;13.50;99.90;;;;;;5036314;28;20443;-75
2022/09/22 09:20:02;;;;;;;0.50;0.40;;;13.70;91.40;;;;;;5033854;28;20563;-73
2022/09/22 09:22:36;;;;;;;0.60;0.50;;;13.90;37.30;;;;;;5036342;28;20875;-75
2022/09/22 09:25:05;;;;;;;0.73;0.40;;;14.00;1.00;;;;;;5031770;28;21052;-75
2022/09/22 09:27:38;;;;;;;0.60;0.40;;;14.10;1.00;;;;;;5036312;28;20494;-75
2022/09/22 09:30:13;;;;;;;0.50;0.30;;;14.10;1.00;;;;;;5034671;28;20472;-74
2022/09/22 09:32:51;;;;;;;0.60;0.40;;;14.20;1.00;;;;;;5036938;28;20440;-74
2022/09/22 09:35:31;;;;;;;2.53;0.50;;;14.20;1.00;;;;;;5036101;28;20787;-74
2022/09/22 09:38:01;;;;;;;2.53;1.53;;;14.30;1.00;;;;;;5036236;28;20452;-74
2022/09/22 09:40:28;;;;;;;0.83;0.50;;;14.40;1.00;;;;;;5034387;28;20547;-75
2022/09/22 09:43:00;;;;;;;0.90;0.60;;;14.50;1.00;;;;;;5035856;28;20460;-75
2022/09/22 09:45:36;;;;;;;0.60;0.40;;;14.60;1.00;;;;;;5032524;28;20460;-75
2022/09/22 09:48:15;;;;;;;0.47;0.30;;;14.70;1.00;;;;;;5034442;28;20480;-75
2022/09/22 09:50:43;;;;;;;1.53;0.40;;;14.80;1.00;;;;;;5031851;28;20824;-75
2022/09/22 09:53:29;;;;;;;0.40;0.30;;;14.90;1.00;;;;;;5035776;28;20931;-75
2022/09/22 09:55:56;;;;;;;0.63;0.37;;;15.10;1.00;;;;;;5034963;28;20982;-73
2022/09/22 10:01:08;;;;;;;0.53;0.30;;;15.60;1.00;;;;;;5034739;28;20424;-73
2022/09/22 10:03:41;;;;;;;0.60;0.50;;;15.90;1.00;;;;;;5032319;28;20472;-74
2022/09/22 10:06:11;;;;;;;0.50;0.30;;;16.20;1.00;;;;;;5034259;28;20433;-75
2022/09/22 10:08:43;;;;;;;1.90;0.40;;;16.40;1.00;;;;;;5044829;28;20472;-75
2022/09/22 10:11:13;;;;;;;1.73;0.40;;;16.50;1.00;;;;;;5033203;28;20453;-76
2022/09/22 10:13:42;;;;;;;0.60;0.40;;;16.30;1.00;;;;;;5029959;28;20542;-75
2022/09/22 10:16:32;;;;;;;0.40;0.30;;;16.30;1.00;;;;;;5042319;28;20504;-76
2022/09/22 10:19:21;;;;;;;0.70;0.30;;;16.50;1.00;;;;;;5035679;28;20883;-75
2022/09/22 10:21:51;;;;;;;0.60;0.40;;;16.70;1.00;;;;;;5036063;28;20793;-75
2022/09/22 10:24:33;;;;;;;0.50;0.30;;;17.00;1.00;;;;;;5030713;28;20527;-75
2022/09/22 10:27:00;;;;;;;0.43;0.30;;;17.30;1.00;;;;;;5034869;28;20741;-74
2022/09/22 10:29:27;;;;;;;0.63;0.40;;;17.40;1.00;;;;;;5031153;28;20495;-74
2022/09/22 10:32:11;;;;;;;0.70;0.40;;;17.40;1.00;;;;;;5036428;28;20934;-74
2022/09/22 10:34:40;;;;;;;0.60;0.30;;;17.30;1.00;;;;;;5033753;28;20448;-75
2022/09/22 10:37:10;;;;;;;0.60;0.30;;;17.50;1.00;;;;;;5038532;28;20444;-75
2022/09/22 10:39:43;;;;;;;0.70;0.37;;;17.70;1.00;;;;;;5034709;28;20502;-76
2022/09/22 10:42:23;;;;;;;1.17;0.77;;;18.00;1.00;;;;;;5038131;28;20498;-74
2022/09/22 10:44:52;;;;;;;1.17;0.53;;;18.00;1.00;;;;;;5052772;28;20964;-76
2022/09/22 10:47:26;;;;;;;0.60;0.33;;;18.20;1.00;;;;;;5043696;28;20824;-76
2022/09/22 10:50:24;;;;;;;0.60;0.30;;;18.40;1.00;;;;;;5058598;28;20487;-74
2022/09/22 10:53:01;;;;;;;0.50;0.30;;;18.40;1.00;;;;;;5040406;28;20452;-74
2022/09/22 10:55:30;;;;;;;0.40;0.30;;;18.20;1.00;;;;;;5033420;28;20447;-75
2022/09/22 10:58:35;;;;;;;0.90;0.30;;;18.20;1.00;;;;;;5044118;28;20451;-74
2022/09/22 11:01:21;;;;;;;1.80;0.40;;;18.20;1.00;;;;;;4991518;28;20456;-74
2022/09/22 11:04:11;;;;;;;1.30;0.87;;;18.10;1.00;;;;;;5036790;28;20460;-75
2022/09/22 11:13:13;;;;;;;0.47;0.30;;;18.60;1.00;;;;;;5038329;28;20991;-75
2022/09/22 11:16:12;;;;;;;0.50;0.30;;;18.50;1.00;;;;;;5034655;28;20891;-74
2022/09/22 11:18:56;;;;;;;0.50;0.30;;;18.50;1.00;;;;;;5037184;28;20448;-71
2022/09/22 11:21:35;;;;;;;0.40;0.30;;;18.60;1.00;;;;;;5035102;28;20482;-71
2022/09/22 11:24:27;;;;;;;0.90;0.23;;;18.90;1.00;;;;;;5058485;28;20478;-71
2022/09/22 11:26:58;;;;;;;0.60;0.30;;;19.30;1.00;;;;;;5033252;28;20487;-71
2022/09/22 11:29:55;;;;;;;0.40;0.30;;;19.40;1.00;;;;;;5033634;28;20484;-71
2022/09/22 11:32:41;;;;;;;0.47;0.30;;;19.40;1.00;;;;;;5037706;28;20943;-71
2022/09/22 11:35:31;;;;;;;0.50;0.30;;;19.60;1.00;;;;;;5054050;28;20447;-71
2022/09/22 11:38:12;;;;;;;0.80;0.30;;;19.90;1.00;;;;;;5054194;28;20538;-71
2022/09/22 11:40:56;;;;;;;0.70;0.30;;;19.70;1.00;;;;;;5050000;28;20764;-71
2022/09/22 11:43:44;;;;;;;0.93;0.30;;;19.60;1.00;;;;;;5055081;28;20509;-70
2022/09/22 11:46:21;;;;;;;0.97;0.20;;;19.50;1.00;;;;;;5054449;28;20447;-71
2022/09/22 11:49:03;;;;;;;0.53;0.30;;;19.30;1.00;;;;;;5051472;28;20479;-71
2022/09/22 11:51:43;;;;;;;0.40;0.30;;;19.20;1.00;;;;;;5054990;28;20524;-71
2022/09/22 11:54:24;;;;;;;0.50;0.30;;;19.10;1.00;;;;;;5056634;28;20439;-70
2022/09/22 11:56:54;;;;;;;0.40;0.20;;;19.10;1.00;;;;;;5041087;28;20462;-70
2022/09/22 11:59:36;;;;;;;0.70;0.30;;;19.10;1.00;;;;;;5044924;28;20898;-70
2022/09/22 12:02:14;;;;;;;0.40;0.30;;;19.00;1.00;;;;;;5054401;28;20895;-71
2022/09/22 12:04:46;;;;;;;0.40;0.20;;;19.10;1.00;;;;;;5041654;28;20812;-71
2022/09/22 12:07:18;;;;;;;0.50;0.30;;;19.20;1.00;;;;;;5048103;28;20929;-70
2022/09/22 12:09:48;;;;;;;0.50;0.30;;;19.10;1.00;;;;;;5037885;28;20495;-70
2022/09/22 12:12:18;;;;;;;0.60;0.30;;;19.30;1.00;;;;;;5040954;28;20872;-71
2022/09/22 12:14:55;;;;;;;0.73;0.30;;;19.50;1.00;;;;;;5037066;28;20190;-74
2022/09/22 12:17:27;;;;;;;1.00;0.27;;;19.10;1.00;;;;;;5039974;28;20464;-75
2022/09/22 12:20:01;;;;;;;0.53;0.40;;;18.90;1.00;;;;;;5039857;28;20441;-74
2022/09/22 12:22:33;;;;;;;0.47;0.30;;;19.00;1.00;;;;;;5033493;28;20942;-74
2022/09/22 12:25:02;;;;;;;0.50;0.30;;;19.00;1.00;;;;;;5035399;28;20463;-74
2022/09/22 12:27:33;;;;;;;0.40;0.30;;;19.10;1.00;;;;;;5031580;28;20759;-74
2022/09/22 12:30:04;;;;;;;0.70;0.30;;;19.10;1.00;;;;;;5037433;28;20494;-75
2022/09/22 12:32:36;;;;;;;0.40;0.30;;;19.20;1.00;;;;;;5038300;28;20841;-74
2022/09/22 12:35:04;;;;;;;0.40;0.30;;;18.90;1.00;;;;;;5036596;28;20502;-73
2022/09/22 12:37:33;;;;;;;0.40;0.23;;;18.80;1.00;;;;;;5038813;28;20445;-74
2022/09/22 12:40:18;;;;;;;0.50;0.30;;;18.70;1.00;;;;;;5036592;28;20444;-74
2022/09/22 12:42:49;;;;;;;0.50;0.20;;;18.90;1.00;;;;;;5032387;28;20491;-75
2022/09/22 12:45:26;;;;;;;0.60;0.30;;;18.80;1.00;;;;;;5034102;28;20676;-76
2022/09/22 12:47:56;;;;;;;0.37;0.20;;;18.80;1.00;;;;;;5035952;28;20455;-74
2022/09/22 12:50:38;;;;;;;0.60;0.30;;;18.80;1.00;;;;;;5029694;28;20484;-75
2022/09/22 12:53:11;;;;;;;0.40;0.30;;;18.90;1.00;;;;;;5033016;28;20523;-74
2022/09/22 12:55:39;;;;;;;0.50;0.20;;;18.70;1.00;;;;;;5034457;28;20780;-73
2022/09/22 12:58:41;;;;;;;0.50;0.30;;;18.60;1.00;;;;;;5035616;28;20459;-74
2022/09/22 13:01:35;;;;;;;0.40;0.30;;;18.60;1.00;;;;;;5031114;28;20553;-74
2022/09/22 13:04:17;;;;;;;0.50;0.23;;;18.60;1.00;;;;;;5008504;28;20440;-74
2022/09/22 13:06:59;;;;;;;1.23;0.30;;;18.60;1.00;;;;;;5030568;28;20451;-73
2022/09/22 13:09:30;;;;;;;0.40;0.20;;;18.70;1.00;;;;;;5033523;28;20782;-74
2022/09/22 13:12:26;;;;;;;0.40;0.20;;;18.50;1.00;;;;;;5034402;28;20483;-74
2022/09/22 13:15:23;;;;;;;0.60;0.30;;;18.60;1.00;;;;;;5030301;28;20452;-74
2022/09/22 13:17:53;;;;;;;0.50;0.27;;;18.60;1.00;;;;;;5033310;28;20440;-75
2022/09/22 13:20:24;;;;;;;0.60;0.20;;;18.50;1.00;;;;;;5030538;28;20503;-75
2022/09/22 13:22:52;;;;;;;0.40;0.30;;;18.40;1.00;;;;;;5023218;28;20591;-75
2022/09/22 13:25:22;;;;;;;0.40;0.30;;;18.10;1.00;;;;;;5018935;28;20465;-75
2022/09/22 13:28:01;;;;;;;0.70;0.20;;;18.30;1.00;;;;;;5021974;28;20527;-75
2022/09/22 13:30:28;;;;;;;0.57;0.30;;;18.10;1.00;;;;;;5029676;28;20488;-74
2022/09/22 13:32:58;;;;;;;0.40;0.20;;;18.20;1.00;;;;;;5050505;28;20576;-74
2022/09/22 13:35:26;;;;;;;0.60;0.30;;;18.40;1.00;;;;;;5051176;28;20968;-73
2022/09/22 13:37:56;;;;;;;0.37;0.20;;;18.50;1.00;;;;;;5041529;28;20460;-74
2022/09/22 13:40:26;;;;;;;0.83;0.20;;;18.40;1.00;;;;;;5050207;28;20462;-73
2022/09/22 13:42:55;;;;;;;0.47;0.20;;;18.30;1.00;;;;;;5054627;28;20471;-73
2022/09/22 13:45:26;;;;;;;0.70;0.30;;;18.20;1.00;;;;;;5038671;28;20467;-73